Time;durP1;ratioP1;P1;durP2;ratioP2;P2;SDS_P1;SDS_P2;PMS_P1;PMS_P2;Temp;Humidity;BMP_temperature;BMP_pressure;BME280_temperature;BME280_humidity;BME280_pressure;Samples;Min_cycle;Max_cycle;Signal;HPM_P1;HPM_P2
2023/01/03 00:01:43;;;;;;;68.15;28.25;;;;;;;3.44;100.00;98491.06;6243319;23;19992;-77
2023/01/03 00:04:09;;;;;;;69.18;28.27;;;;;;;3.46;100.00;98494.53;6242633;23;20333;-78
2023/01/03 00:06:38;;;;;;;71.72;29.48;;;;;;;3.45;100.00;98486.63;6217573;23;20075;-78
2023/01/03 00:09:08;;;;;;;67.53;29.63;;;;;;;3.48;100.00;98495.38;6217705;23;20413;-78
2023/01/03 00:14:22;;;;;;;61.30;25.17;;;;;;;3.32;100.00;98503.63;6243079;23;20019;-77
2023/01/03 00:16:53;;;;;;;47.95;22.48;;;;;;;3.31;100.00;98508.03;6217986;23;20004;-77
2023/01/03 00:19:19;;;;;;;46.97;20.60;;;;;;;3.30;100.00;98506.28;6217558;23;20004;-77
2023/01/03 00:21:45;;;;;;;43.85;20.05;;;;;;;3.32;100.00;98501.88;6243049;23;20004;-76
2023/01/03 00:24:11;;;;;;;42.63;19.17;;;;;;;3.34;100.00;98500.06;6242716;23;20004;-77
2023/01/03 00:26:37;;;;;;;37.72;16.63;;;;;;;3.40;100.00;98505.22;6217241;23;20031;-77
2023/01/03 00:29:03;;;;;;;38.63;16.08;;;;;;;3.37;100.00;98504.41;6217592;23;20004;-77
2023/01/03 00:31:28;;;;;;;35.70;15.35;;;;;;;3.37;100.00;98501.75;6242751;23;20069;-76
2023/01/03 00:33:54;;;;;;;30.05;14.15;;;;;;;3.36;100.00;98508.81;6217540;23;20333;-76
2023/01/03 00:36:20;;;;;;;31.63;14.40;;;;;;;3.32;100.00;98501.00;6217401;23;20004;-77
2023/01/03 00:38:45;;;;;;;34.58;15.80;;;;;;;3.32;100.00;98512.44;6217550;23;20011;-77
2023/01/03 00:41:13;;;;;;;38.50;15.35;;;;;;;3.26;100.00;98505.47;6217242;23;20065;-77
2023/01/03 00:43:41;;;;;;;32.22;15.35;;;;;;;3.35;100.00;98517.66;6217558;23;20019;-77
2023/01/03 00:46:07;;;;;;;39.85;20.00;;;;;;;3.39;100.00;98514.06;6217250;23;20014;-76
2023/01/03 00:48:33;;;;;;;39.30;16.85;;;;;;;3.35;100.00;98507.09;6217225;23;20069;-77
2023/01/03 00:51:44;;;;;;;36.50;16.92;;;;;;;3.40;100.00;98514.94;6217736;23;20004;-80
2023/01/03 00:54:11;;;;;;;36.50;15.73;;;;;;;3.22;100.00;98492.34;6238906;23;20451;-77
2023/01/03 00:56:39;;;;;;;37.80;17.08;;;;;;;3.21;100.00;98495.88;6216977;23;20152;-77
2023/01/03 00:59:05;;;;;;;37.78;15.82;;;;;;;3.26;100.00;98501.97;6217369;23;20008;-78
2023/01/03 01:01:40;;;;;;;41.20;17.88;;;;;;;3.19;100.00;98493.28;6217235;23;20007;-78
2023/01/03 01:04:17;;;;;;;34.95;16.13;;;;;;;3.12;100.00;98477.53;6217923;23;20015;-77
2023/01/03 01:06:45;;;;;;;30.42;14.85;;;;;;;3.20;100.00;98488.84;6242315;23;20395;-76
2023/01/03 01:09:13;;;;;;;31.80;16.15;;;;;;;3.25;100.00;98502.88;6217022;23;20008;-77
2023/01/03 01:11:39;;;;;;;36.38;16.00;;;;;;;3.18;100.00;98494.16;6216995;23;20011;-78
2023/01/03 01:14:18;;;;;;;35.70;16.30;;;;;;;3.20;100.00;98497.63;6217319;23;20004;-77
2023/01/03 01:17:05;;;;;;;33.95;14.65;;;;;;;3.18;100.00;98482.72;6242293;23;20077;-77
2023/01/03 01:19:39;;;;;;;35.47;15.13;;;;;;;3.14;100.00;98487.19;6241979;23;20456;-77
2023/01/03 01:22:08;;;;;;;32.97;15.30;;;;;;;3.08;100.00;98481.13;6217099;23;20004;-78
2023/01/03 01:24:33;;;;;;;34.80;15.88;;;;;;;3.07;100.00;98488.19;6242556;23;20004;-77
2023/01/03 01:26:59;;;;;;;34.75;15.80;;;;;;;3.05;100.00;98489.97;6216912;23;20008;-76
2023/01/03 01:29:25;;;;;;;48.90;16.77;;;;;;;3.01;100.00;98479.50;6216655;23;20048;-77
2023/01/03 01:31:50;;;;;;;58.20;21.77;;;;;;;3.02;100.00;98491.78;6216869;23;20023;-76
2023/01/03 01:34:16;;;;;;;50.30;21.58;;;;;;;3.02;100.00;98491.78;6242392;23;20007;-76
2023/01/03 01:36:43;;;;;;;54.50;24.00;;;;;;;3.00;100.00;98494.47;6216840;23;20004;-78
2023/01/03 01:39:23;;;;;;;59.42;24.70;;;;;;;2.95;100.00;98492.81;6217028;23;20000;-76
2023/01/03 01:44:54;;;;;;;54.33;23.25;;;;;;;2.86;100.00;98493.81;6242697;23;20069;-77
2023/01/03 01:47:26;;;;;;;68.28;27.27;;;;;;;2.77;100.00;98488.69;6242520;23;20016;-77
2023/01/03 01:49:57;;;;;;;65.28;25.67;;;;;;;2.72;100.00;98491.41;6242151;23;20027;-76
2023/01/03 01:52:23;;;;;;;55.92;24.58;;;;;;;2.79;100.00;98491.31;6242464;23;20448;-77
2023/01/03 01:54:50;;;;;;;50.45;22.00;;;;;;;2.62;100.00;98475.72;6216923;23;19999;-77
2023/01/03 01:57:19;;;;;;;58.30;25.10;;;;;;;2.60;100.00;98477.53;6242367;23;20000;-76
2023/01/03 01:59:45;;;;;;;66.38;25.10;;;;;;;2.61;100.00;98479.28;6217549;23;20400;-76
2023/01/03 02:02:10;;;;;;;56.22;22.70;;;;;;;2.63;100.00;98477.47;6216886;23;20010;-77
2023/01/03 02:04:37;;;;;;;67.82;27.15;;;;;;;2.66;100.00;98494.16;6217087;23;20411;-78
2023/01/03 02:07:05;;;;;;;60.33;25.20;;;;;;;2.62;100.00;98488.94;6216629;23;20396;-77
2023/01/03 02:09:33;;;;;;;54.50;24.73;;;;;;;2.57;100.00;98478.44;6216883;23;20004;-78
2023/01/03 02:15:44;;;;;;;60.42;24.40;;;;;;;2.57;100.00;98494.28;6241087;23;20360;-78
2023/01/03 02:18:39;;;;;;;63.65;23.50;;;;;;;2.61;100.00;98489.84;6183172;23;20008;-77
2023/01/03 02:21:07;;;;;;;55.80;21.63;;;;;;;2.52;100.00;98490.84;6243619;23;20012;-77
2023/01/03 02:24:05;;;;;;;40.75;17.67;;;;;;;2.48;100.00;98488.28;6244022;23;20004;-78
2023/01/03 02:26:40;;;;;;;46.78;19.70;;;;;;;2.42;100.00;98477.81;6243971;23;20010;-76
2023/01/03 02:29:19;;;;;;;46.60;19.75;;;;;;;2.54;100.00;98486.41;6218603;23;20012;-76
2023/01/03 02:31:52;;;;;;;61.28;23.65;;;;;;;2.51;100.00;98473.28;6244076;23;19996;-77
2023/01/03 02:34:30;;;;;;;50.97;21.73;;;;;;;2.51;100.00;98489.09;6245849;22;20407;-78
2023/01/03 02:37:13;;;;;;;48.20;19.92;;;;;;;2.52;100.00;98487.34;6243689;23;20475;-77
2023/01/03 02:39:51;;;;;;;49.00;21.05;;;;;;;2.41;100.00;98476.94;6243963;23;20000;-76
2023/01/03 02:45:31;;;;;;;51.45;21.80;;;;;;;2.38;100.00;98476.09;6243870;23;20070;-76
2023/01/03 02:48:13;;;;;;;40.33;19.40;;;;;;;2.34;100.00;98477.06;6243313;23;20095;-76
2023/01/03 02:50:46;;;;;;;52.65;22.20;;;;;;;2.28;100.00;98480.63;6243678;23;20062;-76
2023/01/03 02:53:15;;;;;;;45.13;20.58;;;;;;;2.21;100.00;98464.94;6243980;23;20352;-76
2023/01/03 02:55:41;;;;;;;52.65;23.27;;;;;;;2.30;100.00;98491.19;6218519;23;20012;-77
2023/01/03 02:58:19;;;;;;;60.17;24.45;;;;;;;2.16;100.00;98480.81;6218185;23;20139;-77
2023/01/03 03:00:50;;;;;;;50.80;20.80;;;;;;;2.23;100.00;98493.03;6218170;23;20087;-77
2023/01/03 03:03:19;;;;;;;50.00;22.10;;;;;;;2.21;100.00;98488.69;6218802;23;20006;-77
2023/01/03 03:05:51;;;;;;;50.03;21.05;;;;;;;2.14;100.00;98477.31;6218165;23;20015;-76
2023/01/03 03:08:17;;;;;;;61.25;20.05;;;;;;;2.13;100.00;98489.66;6243301;23;20008;-76
2023/01/03 03:13:42;;;;;;;56.67;19.27;;;;;;;2.12;100.00;98479.13;6243759;23;20070;-76
2023/01/03 03:16:17;;;;;;;41.25;17.95;;;;;;;2.13;100.00;98483.50;6217880;23;20039;-77
2023/01/03 03:18:58;;;;;;;40.90;18.40;;;;;;;2.02;100.00;98480.13;6243429;23;20043;-77
2023/01/03 03:24:48;;;;;;;37.88;15.57;;;;;;;2.05;100.00;98488.00;6243388;23;20014;-78
2023/01/03 03:26:59;;;;;;;47.67;19.90;;;;;;;2.04;100.00;98480.97;6243132;23;20359;-77
2023/01/03 03:29:26;;;;;;;41.17;19.50;;;;;;;2.03;100.00;98484.53;6243196;23;20032;-77
2023/01/03 03:31:52;;;;;;;42.70;17.95;;;;;;;1.99;100.00;98475.78;6243318;23;20510;-77
2023/01/03 03:34:24;;;;;;;48.33;20.10;;;;;;;2.03;100.00;98480.09;6217690;23;20011;-76
2023/01/03 03:37:02;;;;;;;48.78;19.40;;;;;;;2.09;100.00;98489.72;6218164;23;20000;-76
2023/01/03 03:45:38;;;;;;;49.08;19.73;;;;;;;2.15;100.00;98506.31;6243582;23;20095;-77
2023/01/03 03:48:08;;;;;;;48.13;20.00;;;;;;;2.15;100.00;98505.47;6193982;23;20460;-77
2023/01/03 03:50:39;;;;;;;48.22;21.00;;;;;;;2.08;100.00;98504.69;6218097;23;20008;-77
2023/01/03 03:53:07;;;;;;;44.60;20.58;;;;;;;2.04;100.00;98491.53;6217903;23;20011;-77
2023/01/03 03:55:40;;;;;;;44.35;21.27;;;;;;;2.09;100.00;98502.91;6217698;23;20065;-77
2023/01/03 03:58:20;;;;;;;46.13;20.70;;;;;;;2.08;100.00;98503.78;6242997;23;19996;-77
2023/01/03 04:00:47;;;;;;;48.08;20.02;;;;;;;2.01;100.00;98499.47;6216285;23;20015;-76
2023/01/03 04:03:16;;;;;;;57.47;22.20;;;;;;;1.96;100.00;98502.19;6242685;23;20083;-76
2023/01/03 04:05:56;;;;;;;45.17;21.40;;;;;;;2.01;100.00;98505.63;6242908;23;20091;-79
2023/01/03 04:08:21;;;;;;;49.30;21.90;;;;;;;1.91;100.00;98489.94;6215970;23;20016;-77
2023/01/03 04:10:47;;;;;;;58.50;21.38;;;;;;;1.91;100.00;98498.72;6243371;23;20463;-77
2023/01/03 04:13:23;;;;;;;48.58;19.88;;;;;;;1.90;100.00;98501.41;6217530;23;20016;-80
2023/01/03 04:15:49;;;;;;;40.05;17.63;;;;;;;1.85;100.00;98495.28;6242940;23;20008;-77
2023/01/03 04:18:14;;;;;;;45.15;18.13;;;;;;;1.92;100.00;98502.25;6242585;23;20000;-77
2023/01/03 04:20:40;;;;;;;48.63;18.52;;;;;;;1.89;100.00;98502.28;6243034;23;20031;-77
2023/01/03 04:23:05;;;;;;;35.42;17.13;;;;;;;1.83;100.00;98481.25;6217271;23;20066;-77
2023/01/03 04:25:31;;;;;;;41.38;17.77;;;;;;;1.88;100.00;98497.88;6243090;23;20004;-78
2023/01/03 04:28:00;;;;;;;41.60;17.13;;;;;;;1.78;100.00;98477.81;6242995;23;20008;-83
2023/01/03 04:30:26;;;;;;;40.45;18.02;;;;;;;1.73;100.00;98469.06;6242981;23;20014;-76
2023/01/03 04:33:49;;;;;;;;;;;;;;;;;;;;;
2023/01/03 04:36:17;;;;;;;67.43;24.20;;;;;;;1.90;100.00;98517.22;6230052;22;20079;-78
2023/01/03 04:41:32;;;;;;;79.55;30.25;;;;;;;1.75;100.00;98509.50;6243089;23;20007;-77
2023/01/03 04:44:40;;;;;;;72.68;27.27;;;;;;;1.51;100.00;98479.88;6217561;23;20444;-82
2023/01/03 04:47:17;;;;;;;76.38;32.28;;;;;;;1.40;100.00;98450.13;6167325;23;20016;-79
2023/01/03 04:49:45;;;;;;;83.10;33.05;;;;;;;1.69;100.00;98509.56;6218862;23;20452;-76
2023/01/03 04:52:11;;;;;;;80.57;31.67;;;;;;;1.65;100.00;98511.38;6217433;23;20000;-76
2023/01/03 04:54:40;;;;;;;85.05;35.25;;;;;;;1.62;100.00;98533.38;6217054;23;20010;-77
2023/01/03 04:57:06;;;;;;;100.68;35.55;;;;;;;1.52;100.00;98523.81;6217349;23;20035;-77
2023/01/03 04:59:31;;;;;;;108.28;42.75;;;;;;;1.58;100.00;98526.38;6216986;23;20073;-76
2023/01/03 05:01:57;;;;;;;103.13;38.15;;;;;;;1.66;100.00;98544.75;6216796;23;20015;-76
2023/01/03 05:04:22;;;;;;;88.57;30.40;;;;;;;1.53;100.00;98529.94;6242222;23;20082;-76
2023/01/03 05:06:48;;;;;;;73.10;28.35;;;;;;;1.57;100.00;98543.06;6217001;23;20008;-76
2023/01/03 05:09:13;;;;;;;58.60;23.45;;;;;;;1.48;100.00;98527.34;6216774;23;20035;-76
2023/01/03 05:11:39;;;;;;;62.03;24.25;;;;;;;1.54;100.00;98543.09;6216984;23;20326;-76
2023/01/03 05:14:25;;;;;;;59.70;23.15;;;;;;;1.60;100.00;98550.94;6242358;23;20464;-77
2023/01/03 05:16:50;;;;;;;72.35;29.10;;;;;;;1.55;100.00;98549.25;6196081;23;20007;-77
2023/01/03 05:19:16;;;;;;;71.13;28.23;;;;;;;1.53;100.00;98543.13;6242222;23;20000;-76
2023/01/03 05:27:12;;;;;;;68.88;26.88;;;;;;;1.31;100.00;98534.56;6241343;23;20015;-77
2023/01/03 05:29:38;;;;;;;75.32;30.40;;;;;;;1.31;100.00;98536.31;6215611;23;20004;-76
2023/01/03 05:32:04;;;;;;;73.85;29.30;;;;;;;1.35;100.00;98544.19;6215662;23;20008;-77
2023/01/03 05:34:30;;;;;;;77.93;30.38;;;;;;;1.31;100.00;98538.94;6215720;23;20325;-79
2023/01/03 05:36:56;;;;;;;71.93;29.30;;;;;;;1.24;100.00;98537.25;6215320;23;20499;-75
2023/01/03 05:39:21;;;;;;;81.10;31.67;;;;;;;1.39;100.00;98553.78;6216755;23;20004;-76
2023/01/03 05:41:59;;;;;;;87.47;32.30;;;;;;;1.38;100.00;98548.56;6216326;23;20026;-76
2023/01/03 05:44:25;;;;;;;69.95;28.02;;;;;;;1.41;100.00;98556.44;6219355;23;20008;-76
2023/01/03 05:46:51;;;;;;;71.20;28.50;;;;;;;1.38;100.00;98557.34;6216501;23;20151;-76
2023/01/03 05:49:17;;;;;;;98.82;33.65;;;;;;;1.43;100.00;98557.28;6217004;23;20047;-77
2023/01/03 05:51:42;;;;;;;97.82;32.97;;;;;;;1.46;100.00;98570.44;6217246;23;20003;-78
2023/01/03 05:54:12;;;;;;;74.93;30.95;;;;;;;1.53;100.00;98573.00;6218395;23;20062;-77
2023/01/03 05:56:38;;;;;;;85.25;33.10;;;;;;;1.62;100.00;98583.47;6218340;23;20375;-78
2023/01/03 05:59:06;;;;;;;105.05;40.35;;;;;;;1.68;100.00;98582.53;6218663;23;20032;-76
2023/01/03 06:01:32;;;;;;;106.03;40.88;;;;;;;1.72;100.00;98580.72;6219178;23;20012;-77
2023/01/03 06:03:57;;;;;;;104.40;41.63;;;;;;;1.78;100.00;98589.47;6218489;23;20012;-77
2023/01/03 06:06:23;;;;;;;123.22;40.88;;;;;;;1.82;100.00;98590.25;6218536;23;20087;-77
2023/01/03 06:08:49;;;;;;;106.75;42.35;;;;;;;1.82;100.00;98592.91;6218223;23;20506;-76
2023/01/03 06:11:15;;;;;;;129.38;48.22;;;;;;;1.82;100.00;98592.91;6218369;23;20011;-77
2023/01/03 06:13:41;;;;;;;127.93;46.53;;;;;;;1.87;100.00;98599.91;6218360;23;20026;-76
2023/01/03 06:18:53;;;;;;;144.63;52.95;;;;;;;2.00;100.00;98600.66;6244007;23;20019;-78
2023/01/03 06:21:19;;;;;;;140.55;47.92;;;;;;;2.07;100.00;98594.38;6243962;23;20004;-77
2023/01/03 06:23:46;;;;;;;112.93;42.33;;;;;;;2.08;100.00;98588.22;6218345;23;20008;-78
2023/01/03 06:26:16;;;;;;;105.93;40.63;;;;;;;1.96;100.00;98562.88;6243895;23;20058;-76
2023/01/03 06:28:41;;;;;;;105.22;38.78;;;;;;;1.97;100.00;98574.31;6244036;23;20012;-76
2023/01/03 06:31:07;;;;;;;85.47;35.00;;;;;;;1.88;100.00;98564.69;6243609;23;20000;-76
2023/01/03 06:33:33;;;;;;;115.45;46.38;;;;;;;1.75;100.00;98546.41;6243613;23;20074;-76
2023/01/03 06:36:11;;;;;;;170.95;60.72;;;;;;;1.70;100.00;98542.94;6218236;23;20008;-78
2023/01/03 06:38:37;;;;;;;130.45;52.10;;;;;;;1.79;100.00;98558.66;6218402;23;20018;-77
2023/01/03 06:41:03;;;;;;;141.10;55.58;;;;;;;1.72;100.00;98541.19;6243840;23;20389;-77
2023/01/03 06:43:29;;;;;;;115.70;46.45;;;;;;;1.89;100.00;98561.19;6218362;23;20004;-77
2023/01/03 06:54:23;;;;;;;113.90;44.15;;;;;;;3.11;100.00;98594.72;6243641;23;20423;-77
2023/01/03 06:56:49;;;;;;;125.72;51.20;;;;;;;4.21;100.00;98597.19;6217955;23;20526;-76
2023/01/03 06:59:15;;;;;;;136.00;58.95;;;;;;;5.36;100.00;98568.03;6218086;23;20000;-76
2023/01/03 07:01:41;;;;;;;183.80;84.57;;;;;;;6.53;100.00;98536.50;6243343;23;20004;-77
2023/01/03 07:04:06;;;;;;;149.43;63.45;;;;;;;7.68;100.00;98500.81;6243147;23;20083;-75
2023/01/03 07:06:32;;;;;;;131.38;65.10;;;;;;;8.62;99.58;98466.19;6217984;23;20098;-76
2023/01/03 07:08:57;;;;;;;152.95;74.10;;;;;;;9.45;90.30;98448.50;6218174;23;20004;-77
2023/01/03 07:11:23;;;;;;;165.88;78.68;;;;;;;10.06;83.91;98417.25;6217997;23;20004;-76
2023/01/03 07:13:59;;;;;;;158.27;72.82;;;;;;;10.46;78.91;98386.03;6218190;23;20000;-77
2023/01/03 07:16:31;;;;;;;208.90;95.95;;;;;;;10.27;78.22;98370.81;6219756;23;20004;-77
2023/01/03 07:18:56;;;;;;;225.37;104.27;;;;;;;10.51;77.50;98352.75;6243286;23;20000;-76
2023/01/03 07:21:28;;;;;;;160.90;75.75;;;;;;;11.13;73.45;98349.63;6243293;23;20023;-76
2023/01/03 07:24:00;;;;;;;158.93;71.30;;;;;;;11.06;73.12;98328.56;6218127;23;20087;-77
2023/01/03 07:26:26;;;;;;;145.85;67.60;;;;;;;10.44;76.48;98303.16;6243159;23;20004;-77
2023/01/03 07:28:52;;;;;;;164.25;70.15;;;;;;;10.67;75.19;98302.91;6217939;23;20004;-76
2023/01/03 07:31:18;;;;;;;183.07;87.07;;;;;;;10.06;77.98;98290.78;6217575;23;20046;-77
2023/01/03 07:33:44;;;;;;;182.35;89.60;;;;;;;10.03;79.62;98289.09;6217692;23;20027;-77
2023/01/03 07:36:11;;;;;;;203.60;95.25;;;;;;;10.83;75.62;98316.34;6217632;23;20012;-77
2023/01/03 07:38:38;;;;;;;187.30;94.28;;;;;;;11.68;70.29;98333.31;6217978;23;20111;-76
2023/01/03 07:41:06;;;;;;;178.38;86.38;;;;;;;12.51;65.52;98331.34;6217410;23;20004;-76
2023/01/03 07:43:36;;;;;;;175.70;83.80;;;;;;;12.45;63.20;98316.47;6218147;23;20008;-77
2023/01/03 07:46:14;;;;;;;184.73;88.63;;;;;;;12.80;62.33;98313.53;6242674;23;20008;-77
2023/01/03 07:48:40;;;;;;;178.85;87.25;;;;;;;13.00;61.83;98307.88;6244853;22;20498;-77
2023/01/03 07:51:07;;;;;;;172.73;87.50;;;;;;;13.42;60.18;98310.69;6217507;23;20015;-77
2023/01/03 07:53:34;;;;;;;162.55;83.22;;;;;;;14.07;58.50;98297.63;6217334;23;20011;-77
2023/01/03 07:56:03;;;;;;;152.90;82.20;;;;;;;14.75;56.33;98312.03;6217457;23;20008;-77
2023/01/03 07:58:29;;;;;;;161.25;81.47;;;;;;;14.92;54.88;98297.44;6217485;23;20070;-77
2023/01/03 08:00:55;;;;;;;151.13;80.78;;;;;;;15.28;53.88;98299.44;6217732;23;20004;-77
2023/01/03 08:03:21;;;;;;;170.60;87.25;;;;;;;14.80;54.43;98282.06;6217375;23;20015;-77
2023/01/03 08:05:46;;;;;;;169.13;87.38;;;;;;;14.13;56.27;98259.56;6217415;23;20008;-77
2023/01/03 08:08:12;;;;;;;185.90;89.53;;;;;;;14.26;56.85;98271.28;6217285;23;20440;-78
2023/01/03 08:13:23;;;;;;;168.80;89.57;;;;;;;15.12;55.34;98283.47;6242492;23;20486;-78
2023/01/03 08:16:09;;;;;;;183.75;92.75;;;;;;;15.31;55.01;98286.63;6217466;23;20011;-78
2023/01/03 08:18:35;;;;;;;181.55;95.28;;;;;;;15.23;55.00;98274.66;6242649;23;20075;-77
2023/01/03 08:21:01;;;;;;;172.20;96.65;;;;;;;15.29;55.08;98268.84;6217428;23;20396;-76
2023/01/03 08:23:27;;;;;;;194.60;102.93;;;;;;;15.55;54.24;98275.97;6217476;23;20086;-77
2023/01/03 08:25:59;;;;;;;217.68;117.18;;;;;;;16.36;51.92;98290.78;6217501;23;20069;-78
2023/01/03 08:28:25;;;;;;;241.95;122.95;;;;;;;16.24;52.02;98275.47;6217258;23;20066;-77
2023/01/03 08:30:51;;;;;;;234.32;124.53;;;;;;;16.14;52.27;98279.81;6217214;23;20035;-76
2023/01/03 08:33:18;;;;;;;244.15;121.57;;;;;;;16.49;51.40;98280.78;6217227;23;20004;-78
2023/01/03 08:35:53;;;;;;;239.85;125.10;;;;;;;16.34;51.66;98272.94;6216669;23;20069;-76
2023/01/03 08:38:23;;;;;;;227.80;121.40;;;;;;;16.82;50.37;98279.28;6215919;23;20004;-78
2023/01/03 08:40:49;;;;;;;214.73;118.60;;;;;;;17.30;49.34;98283.63;6217290;23;20418;-77
2023/01/03 08:43:15;;;;;;;215.68;118.30;;;;;;;17.05;49.46;98267.56;6217278;23;20436;-77
2023/01/03 08:45:41;;;;;;;219.93;120.47;;;;;;;16.71;50.20;98258.47;6217463;23;20087;-76
2023/01/03 08:48:07;;;;;;;220.48;116.70;;;;;;;16.61;51.33;98276.34;6242639;23;20050;-77
2023/01/03 08:50:33;;;;;;;220.38;115.18;;;;;;;16.30;52.23;98272.31;6217254;23;20058;-77
2023/01/03 08:52:59;;;;;;;187.02;97.20;;;;;;;16.56;52.11;98271.28;6217199;23;20483;-78
2023/01/03 08:55:26;;;;;;;159.32;90.93;;;;;;;16.94;51.72;98281.06;6215546;23;20090;-77
2023/01/03 08:57:52;;;;;;;145.23;81.32;;;;;;;17.68;50.33;98284.25;6216754;23;20007;-76
2023/01/03 09:00:17;;;;;;;149.70;78.00;;;;;;;17.95;49.21;98275.78;6217209;23;20012;-77
2023/01/03 09:02:43;;;;;;;125.45;70.07;;;;;;;18.49;48.28;98277.72;6217131;23;20004;-77
2023/01/03 09:05:09;;;;;;;129.23;65.35;;;;;;;18.80;47.62;98277.78;6242377;23;20356;-78
2023/01/03 09:07:34;;;;;;;107.97;58.25;;;;;;;19.26;46.67;98269.31;6216970;23;20448;-77
2023/01/03 09:10:00;;;;;;;109.20;59.20;;;;;;;19.16;47.06;98262.13;6216953;23;20004;-78
2023/01/03 09:12:26;;;;;;;83.82;48.08;;;;;;;19.26;46.86;98268.44;6242308;23;20084;-78
2023/01/03 09:14:52;;;;;;;83.38;47.13;;;;;;;19.52;46.52;98258.97;6217022;23;20087;-78
2023/01/03 09:17:17;;;;;;;90.72;51.88;;;;;;;19.78;46.28;98268.41;6217026;23;20413;-78
2023/01/03 09:19:43;;;;;;;79.47;46.25;;;;;;;20.25;45.00;98271.47;6242484;23;20352;-78
2023/01/03 09:22:09;;;;;;;86.35;46.60;;;;;;;20.68;44.38;98261.19;6217201;23;20061;-78
2023/01/03 09:24:34;;;;;;;84.93;48.58;;;;;;;21.38;43.05;98257.41;6242348;23;20004;-79
2023/01/03 09:27:00;;;;;;;87.38;48.30;;;;;;;21.83;42.02;98246.69;6218559;23;20043;-77
2023/01/03 09:29:25;;;;;;;78.07;45.42;;;;;;;22.72;40.76;98261.56;6219225;23;20068;-78
2023/01/03 09:31:51;;;;;;;79.85;45.92;;;;;;;22.80;39.88;98235.22;6219191;23;20004;-77
2023/01/03 09:34:16;;;;;;;86.53;46.75;;;;;;;23.16;39.33;98227.91;6243290;23;20082;-76
2023/01/03 09:36:42;;;;;;;73.93;45.75;;;;;;;23.72;38.53;98228.38;6219049;23;20004;-78
2023/01/03 09:39:08;;;;;;;76.43;45.00;;;;;;;23.99;38.07;98230.09;6219343;23;20011;-78
2023/01/03 09:44:17;;;;;;;60.17;35.92;;;;;;;23.52;39.03;98224.16;6244480;23;20099;-77
2023/01/03 09:46:42;;;;;;;63.95;37.67;;;;;;;24.22;37.59;98217.59;6242881;23;20012;-78
2023/01/03 09:49:12;;;;;;;54.50;32.13;;;;;;;24.45;36.89;98209.66;6219109;23;20003;-77
2023/01/03 10:06:29;;;;;;;68.63;36.85;;;;;;;23.37;38.52;98159.28;6244319;23;20011;-78
2023/01/03 10:09:01;;;;;;;71.10;38.90;;;;;;;23.40;38.70;98164.47;6246050;23;20329;-78
2023/01/03 10:11:37;;;;;;;68.15;36.80;;;;;;;24.59;37.18;98178.06;6219325;23;20065;-78
2023/01/03 10:14:31;;;;;;;62.78;37.63;;;;;;;24.98;36.33;98168.22;6218979;23;20015;-77
2023/01/03 10:17:11;;;;;;;65.60;37.13;;;;;;;24.41;36.65;98139.03;6218728;23;20000;-78
2023/01/03 10:20:18;;;;;;;65.95;36.75;;;;;;;24.12;37.21;98139.44;6218640;23;20008;-78
2023/01/03 10:22:45;;;;;;;65.75;36.63;;;;;;;24.46;36.92;98147.56;6243899;23;20003;-75
2023/01/03 10:25:18;;;;;;;57.25;36.20;;;;;;;24.93;36.17;98145.97;6218630;23;20394;-78
2023/01/03 10:27:46;;;;;;;60.30;35.38;;;;;;;25.48;35.65;98145.25;6217947;23;20004;-78
2023/01/03 10:30:16;;;;;;;56.28;34.35;;;;;;;26.35;34.23;98139.72;6244376;23;20010;-78
2023/01/03 10:32:58;;;;;;;57.35;35.30;;;;;;;25.83;35.11;98133.91;6217534;23;20091;-78
2023/01/03 10:35:26;;;;;;;;;;;;;;;26.36;34.17;98135.97;6244270;23;20012;-78
2023/01/03 10:37:53;;;;;;;62.83;35.83;;;;;;;27.11;33.41;98141.63;6243508;23;19904;-79
2023/01/03 10:40:19;;;;;;;60.13;37.22;;;;;;;27.34;32.13;98115.84;6218556;23;20000;-79
2023/01/03 10:42:45;;;;;;;63.50;35.63;;;;;;;27.33;32.43;98110.53;6218497;23;20447;-78
2023/01/03 10:45:16;;;;;;;60.08;35.92;;;;;;;27.65;31.31;98106.63;6218646;23;20004;-79
2023/01/03 10:47:42;;;;;;;59.13;36.42;;;;;;;27.25;31.85;98103.25;6218419;23;20016;-79
2023/01/03 10:50:19;;;;;;;63.92;38.58;;;;;;;26.85;32.36;98078.88;6218441;23;20079;-78
2023/01/03 10:52:46;;;;;;;55.85;35.22;;;;;;;27.47;31.39;98092.41;6218781;23;20008;-78
2023/01/03 10:55:17;;;;;;;63.45;34.63;;;;;;;28.01;31.21;98096.56;6218786;23;20091;-79
2023/01/03 10:58:04;;;;;;;46.78;31.10;;;;;;;28.21;30.27;98070.19;6218704;23;20083;-78
2023/01/03 11:00:33;;;;;;;39.35;25.85;;;;;;;28.58;29.64;98077.38;6218745;23;20000;-79
2023/01/03 11:03:22;;;;;;;49.50;30.80;;;;;;;28.69;29.84;98070.56;6218593;23;20356;-78
2023/01/03 11:06:12;;;;;;;37.45;25.45;;;;;;;29.23;29.21;98079.94;6219383;23;20083;-77
2023/01/03 11:08:43;;;;;;;40.88;21.42;;;;;;;28.20;29.92;98060.25;6229601;23;20055;-79
2023/01/03 11:11:31;;;;;;;37.88;23.55;;;;;;;28.02;30.29;98054.28;6245008;23;20467;-79
2023/01/03 11:14:19;;;;;;;42.67;24.80;;;;;;;29.17;29.65;98071.63;6244572;22;20007;-79
2023/01/03 11:16:52;;;;;;;39.22;22.23;;;;;;;29.65;28.99;98053.34;6218403;23;20007;-80
2023/01/03 11:19:18;;;;;;;31.63;19.52;;;;;;;29.79;28.98;98049.59;6218662;23;20004;-79
2023/01/03 11:21:54;;;;;;;37.75;22.70;;;;;;;29.47;29.50;98051.97;6219462;23;20067;-79
2023/01/03 11:24:50;;;;;;;31.10;19.50;;;;;;;29.91;29.16;98035.06;6218621;23;20031;-79
2023/01/03 11:27:39;;;;;;;33.92;21.00;;;;;;;29.39;29.04;98029.22;6243287;23;20011;-81
2023/01/03 11:30:20;;;;;;;35.40;21.83;;;;;;;28.85;29.64;98024.31;6218123;23;20020;-80
2023/01/03 11:33:15;;;;;;;36.33;22.03;;;;;;;29.39;29.02;98027.31;6243467;23;20415;-80
2023/01/03 11:36:02;;;;;;;58.80;24.50;;;;;;;29.45;29.48;98029.25;6218679;23;20032;-79
2023/01/03 11:38:49;;;;;;;45.92;25.90;;;;;;;29.66;28.88;98013.66;6244093;23;20460;-80
2023/01/03 11:41:43;;;;;;;41.22;28.45;;;;;;;30.21;28.29;98018.22;6243701;23;20007;-80
2023/01/03 11:44:36;;;;;;;41.03;26.35;;;;;;;29.49;28.85;97997.47;6242549;23;20011;-80
2023/01/03 11:50:56;;;;;;;37.67;25.77;;;;;;;29.66;28.56;97970.38;6230676;22;20020;-78
2023/01/03 11:53:44;;;;;;;40.28;25.88;;;;;;;29.84;28.46;97954.16;6242931;23;20440;-78
2023/01/03 11:56:37;;;;;;;46.05;26.60;;;;;;;31.06;27.81;97999.06;6217702;23;20066;-79
2023/01/03 11:59:14;;;;;;;53.25;25.02;;;;;;;31.16;27.71;97980.94;6219579;23;20032;-78
2023/01/03 12:02:24;;;;;;;50.53;24.85;;;;;;;31.45;27.05;97976.88;6242864;23;20011;-79
2023/01/03 12:05:04;;;;;;;44.80;24.13;;;;;;;31.82;27.07;97997.44;6127262;23;20541;-79
2023/01/03 12:08:07;;;;;;;45.80;24.10;;;;;;;32.69;26.20;97994.06;6236728;23;20057;-78
2023/01/03 12:10:42;;;;;;;53.83;31.70;;;;;;;32.49;26.58;97985.81;6243030;23;20355;-77
2023/01/03 12:13:22;;;;;;;43.88;24.48;;;;;;;31.71;26.59;97959.38;6242812;23;20111;-79
2023/01/03 12:16:02;;;;;;;37.88;21.55;;;;;;;31.35;27.04;97946.03;6243033;23;20014;-80
2023/01/03 12:18:36;;;;;;;34.38;21.25;;;;;;;30.97;27.20;97958.88;6243252;23;20008;-81
2023/01/03 12:21:10;;;;;;;36.40;22.55;;;;;;;30.86;27.38;97948.41;6243391;23;20356;-81
2023/01/03 12:23:52;;;;;;;40.70;23.38;;;;;;;30.94;27.22;97948.22;6217770;23;20440;-80
2023/01/03 12:26:18;;;;;;;32.95;20.02;;;;;;;31.06;27.09;97955.69;6217822;23;20020;-80
2023/01/03 12:28:51;;;;;;;29.70;20.08;;;;;;;31.17;26.89;97951.38;6217716;23;20007;-80
2023/01/03 12:31:35;;;;;;;36.95;20.25;;;;;;;31.36;26.48;97933.91;6218017;23;20011;-81
2023/01/03 12:34:19;;;;;;;41.22;20.42;;;;;;;31.36;27.01;97955.19;6217893;23;20031;-81
2023/01/03 12:37:07;;;;;;;40.58;18.92;;;;;;;31.30;27.04;97956.06;6243263;23;20012;-81
2023/01/03 12:39:47;;;;;;;57.80;22.58;;;;;;;31.07;27.06;97926.13;6217546;23;20440;-81
2023/01/03 12:42:26;;;;;;;54.10;26.55;;;;;;;31.07;27.45;97943.53;6242665;23;20058;-82
2023/01/03 12:44:58;;;;;;;43.97;22.35;;;;;;;31.64;26.87;97956.63;6242755;23;20034;-81